createdAt,value
2019-03-23T00:03:03.333Z,35.40
2019-03-23T00:06:09.592Z,37.07
2019-03-23T00:09:15.880Z,39.23
2019-03-23T00:12:22.341Z,41.87
2019-03-23T00:15:28.715Z,43.57
2019-03-23T00:18:34.969Z,39.40
2019-03-23T00:21:42.636Z,37.33
2019-03-23T00:24:48.934Z,41.00
2019-03-23T00:27:55.296Z,37.30
2019-03-23T00:31:01.777Z,33.57
2019-03-23T00:34:08.175Z,33.43
2019-03-23T00:37:15.500Z,33.77
2019-03-23T00:40:21.763Z,40.60
2019-03-23T00:43:28.091Z,39.30
2019-03-23T00:46:34.463Z,37.70
2019-03-23T00:49:40.769Z,36.67
2019-03-23T00:52:47.087Z,40.67
2019-03-23T00:55:53.407Z,39.97
2019-03-23T00:58:59.780Z,45.03
2019-03-23T01:02:06.026Z,41.37
2019-03-23T01:05:12.741Z,40.00
2019-03-23T01:08:19.095Z,41.73
2019-03-23T01:11:25.429Z,40.23
2019-03-23T01:14:31.706Z,38.03
2019-03-23T01:17:38.159Z,38.60
2019-03-23T01:20:49.651Z,39.33
2019-03-23T01:23:52.531Z,36.97
2019-03-23T01:26:58.857Z,37.00
2019-03-23T01:30:05.809Z,35.63
2019-03-23T01:33:12.271Z,46.77
2019-03-23T01:36:19.603Z,41.27
2019-03-23T01:39:25.953Z,36.67
2019-03-23T01:42:32.237Z,36.30
2019-03-23T01:45:38.700Z,39.20
2019-03-23T01:48:44.960Z,34.13
2019-03-23T01:51:51.730Z,37.70
2019-03-23T01:54:58.089Z,37.27
2019-03-23T01:58:05.528Z,37.73
2019-03-23T02:01:11.819Z,36.70
2019-03-23T02:04:18.058Z,33.40
2019-03-23T02:07:24.391Z,37.87
2019-03-23T02:10:30.625Z,38.07
2019-03-23T02:13:36.913Z,32.93
2019-03-23T02:16:43.156Z,34.23
2019-03-23T02:19:49.442Z,32.43
2019-03-23T02:22:55.756Z,32.10
2019-03-23T02:26:02.053Z,38.30
2019-03-23T02:29:08.319Z,39.20
2019-03-23T02:32:14.585Z,34.17
2019-03-23T02:35:20.940Z,32.13
2019-03-23T02:38:27.237Z,30.67
2019-03-23T02:41:33.502Z,32.40
2019-03-23T02:44:39.798Z,35.37
2019-03-23T02:47:46.188Z,34.30
2019-03-23T02:50:52.586Z,32.23
2019-03-23T02:53:58.852Z,32.70
2019-03-23T02:57:05.156Z,33.27
2019-03-23T03:00:12.052Z,31.07
2019-03-23T03:03:18.375Z,37.87
2019-03-23T03:06:24.657Z,32.77
2019-03-23T03:09:31.000Z,34.60
2019-03-23T03:12:37.261Z,35.30
2019-03-23T03:15:43.653Z,30.03
2019-03-23T03:18:49.944Z,33.40
2019-03-23T03:21:56.239Z,34.47
2019-03-23T03:25:02.514Z,35.33
2019-03-23T03:28:08.873Z,30.90
2019-03-23T03:31:15.445Z,33.20
2019-03-23T03:34:21.709Z,37.63
2019-03-23T03:37:27.977Z,37.93
2019-03-23T03:40:34.512Z,35.10
2019-03-23T03:43:40.953Z,32.73
2019-03-23T03:46:47.232Z,36.20
2019-03-23T03:49:53.477Z,32.37
2019-03-23T03:52:59.772Z,36.50
2019-03-23T03:56:06.067Z,35.13
2019-03-23T03:59:12.348Z,33.13
2019-03-23T04:02:18.614Z,29.63
2019-03-23T04:05:25.008Z,27.23
2019-03-23T04:08:31.271Z,28.80
2019-03-23T04:11:37.571Z,31.87
2019-03-23T04:14:43.909Z,26.70
2019-03-23T04:17:50.144Z,28.10
2019-03-23T04:20:56.438Z,31.87
2019-03-23T04:24:02.830Z,27.00
2019-03-23T04:27:09.189Z,30.30
2019-03-23T04:30:15.871Z,29.07
2019-03-23T04:33:22.143Z,27.83
2019-03-23T04:36:28.411Z,26.37
2019-03-23T04:39:34.852Z,25.17
2019-03-23T04:42:41.224Z,21.63
2019-03-23T04:45:47.501Z,23.70
2019-03-23T04:48:53.819Z,25.13
2019-03-23T04:52:00.169Z,23.77
2019-03-23T04:55:09.544Z,23.13
2019-03-23T04:58:15.873Z,22.20
2019-03-23T05:01:22.254Z,23.20
2019-03-23T05:04:28.592Z,24.20
2019-03-23T05:07:34.878Z,24.83
2019-03-23T05:10:41.189Z,23.47
2019-03-23T05:13:47.498Z,20.20
2019-03-23T05:16:53.883Z,23.53
2019-03-23T05:20:00.344Z,23.20
2019-03-23T05:23:08.299Z,23.17
2019-03-23T05:26:14.599Z,23.10
2019-03-23T05:29:20.905Z,25.23
2019-03-23T05:32:27.204Z,23.77
2019-03-23T05:35:33.676Z,23.93
2019-03-23T05:38:44.386Z,24.00
2019-03-23T05:41:47.897Z,22.87
2019-03-23T05:44:54.305Z,23.20
2019-03-23T05:48:00.620Z,24.47
2019-03-23T05:51:07.156Z,21.87
2019-03-23T05:54:13.428Z,24.00
2019-03-23T05:57:20.003Z,21.10
2019-03-23T06:00:26.352Z,25.50
2019-03-23T06:03:32.658Z,20.70
2019-03-23T06:06:39.055Z,23.73
2019-03-23T06:09:45.486Z,22.40
2019-03-23T06:12:51.809Z,25.20
2019-03-23T06:15:58.162Z,21.13
2019-03-23T06:19:04.525Z,23.57
2019-03-23T06:22:10.799Z,28.67
2019-03-23T06:25:17.232Z,25.07
2019-03-23T06:28:23.502Z,24.30
2019-03-23T06:31:29.864Z,24.83
2019-03-23T06:34:36.272Z,20.93
2019-03-23T06:37:42.821Z,21.40
2019-03-23T06:40:49.111Z,25.90
2019-03-23T06:43:55.629Z,26.77
2019-03-23T06:47:01.930Z,20.63
2019-03-23T06:50:08.925Z,21.13
2019-03-23T06:53:15.482Z,20.93
2019-03-23T06:56:21.776Z,17.93
2019-03-23T06:59:28.117Z,19.03
2019-03-23T07:02:34.496Z,19.53
2019-03-23T07:05:40.829Z,19.33
2019-03-23T07:08:47.119Z,19.43
2019-03-23T07:11:53.410Z,19.50
2019-03-23T07:14:59.671Z,18.30
2019-03-23T07:18:06.178Z,16.87
2019-03-23T07:21:12.554Z,17.40
2019-03-23T07:24:18.878Z,20.90
2019-03-23T07:27:25.132Z,18.53
2019-03-23T07:30:31.417Z,20.83
2019-03-23T07:33:37.759Z,18.27
2019-03-23T07:36:44.191Z,15.43
2019-03-23T07:39:50.565Z,21.90
2019-03-23T07:42:57.328Z,20.10
2019-03-23T07:46:03.689Z,21.30
2019-03-23T07:49:10.083Z,18.73
2019-03-23T07:52:16.472Z,20.33
2019-03-23T07:55:22.769Z,19.93
2019-03-23T07:58:31.796Z,16.53
2019-03-23T08:01:38.029Z,29.80
2019-03-23T08:04:44.369Z,17.33
2019-03-23T08:07:50.642Z,15.77
2019-03-23T08:10:57.121Z,18.97
2019-03-23T08:14:03.439Z,16.30
2019-03-23T08:17:09.749Z,19.03
2019-03-23T08:20:16.020Z,17.27
2019-03-23T08:23:23.386Z,16.57
2019-03-23T08:26:29.740Z,16.10
2019-03-23T08:29:36.065Z,20.03
2019-03-23T08:32:42.452Z,17.47
2019-03-23T08:35:48.800Z,17.07
2019-03-23T08:38:55.110Z,17.07
2019-03-23T08:42:01.533Z,16.47
2019-03-23T08:45:08.482Z,17.93
2019-03-23T08:48:15.023Z,16.43
2019-03-23T08:51:21.314Z,17.10
2019-03-23T08:54:27.678Z,15.53
2019-03-23T08:57:33.934Z,19.10
2019-03-23T09:00:40.244Z,18.07
2019-03-23T09:03:52.328Z,19.37
2019-03-23T09:06:54.635Z,16.77
2019-03-23T09:10:01.189Z,18.90
2019-03-23T09:13:07.640Z,18.90
2019-03-23T09:16:13.945Z,21.47
2019-03-23T09:19:20.275Z,15.50
2019-03-23T09:22:26.558Z,17.43
2019-03-23T09:25:32.892Z,15.93
2019-03-23T09:28:39.264Z,19.10
2019-03-23T09:31:45.559Z,23.60
2019-03-23T09:34:51.884Z,16.87
2019-03-23T09:37:58.192Z,19.60
2019-03-23T09:41:04.596Z,17.30
2019-03-23T09:44:10.913Z,15.67
2019-03-23T09:47:17.196Z,14.17
2019-03-23T09:50:23.652Z,15.63
2019-03-23T09:53:29.926Z,17.43
2019-03-23T09:56:36.271Z,13.67
2019-03-23T09:59:42.601Z,13.90
2019-03-23T10:02:48.996Z,13.37
2019-03-23T10:05:55.847Z,14.10
2019-03-23T10:09:02.161Z,11.10
2019-03-23T10:12:09.635Z,11.60
2019-03-23T10:15:16.013Z,11.87
2019-03-23T10:18:22.390Z,10.83
2019-03-23T10:21:28.737Z,9.10
2019-03-23T10:24:34.987Z,15.07
2019-03-23T10:27:41.274Z,16.83
2019-03-23T10:30:47.638Z,17.33
2019-03-23T10:33:54.140Z,11.17
2019-03-23T10:37:00.459Z,13.67
2019-03-23T10:40:07.685Z,12.50
2019-03-23T10:43:13.990Z,9.83
2019-03-23T10:46:20.474Z,14.37
2019-03-23T10:49:26.787Z,11.30
2019-03-23T10:52:33.075Z,10.20
2019-03-23T10:55:39.398Z,12.33
2019-03-23T10:58:45.665Z,9.03
2019-03-23T11:01:51.998Z,10.77
2019-03-23T11:04:58.317Z,9.10
2019-03-23T11:08:04.758Z,9.13
2019-03-23T11:11:11.020Z,8.97
2019-03-23T11:14:17.300Z,11.00
2019-03-23T11:17:23.539Z,9.93
2019-03-23T11:20:30.897Z,9.00
2019-03-23T11:23:37.195Z,10.33
2019-03-23T11:26:43.471Z,10.67
2019-03-23T11:29:49.795Z,10.47
2019-03-23T11:32:56.068Z,14.00
2019-03-23T11:36:02.357Z,11.43
2019-03-23T11:39:09.487Z,10.20
2019-03-23T11:42:15.769Z,11.13
2019-03-23T11:45:22.306Z,10.40
2019-03-23T11:48:28.596Z,10.63
2019-03-23T11:51:35.863Z,11.20
2019-03-23T11:54:42.156Z,13.23
2019-03-23T11:57:48.440Z,12.20
2019-03-23T12:00:54.853Z,9.43
2019-03-23T12:04:01.205Z,8.87
2019-03-23T12:07:07.672Z,9.40
2019-03-23T12:10:14.935Z,10.10
2019-03-23T12:13:21.293Z,8.70
2019-03-23T12:16:27.562Z,12.47
2019-03-23T12:19:33.858Z,19.57
2019-03-23T12:22:40.345Z,10.67
2019-03-23T12:25:46.617Z,9.57
2019-03-23T12:28:52.954Z,11.37
2019-03-23T12:31:59.230Z,8.20
2019-03-23T12:35:06.423Z,11.37
2019-03-23T12:38:12.734Z,8.83
2019-03-23T12:41:23.268Z,12.37
2019-03-23T12:44:27.205Z,11.50
2019-03-23T12:47:33.476Z,12.37
2019-03-23T12:50:39.759Z,12.60
2019-03-23T12:53:46.230Z,12.03
2019-03-23T12:56:52.564Z,10.90
2019-03-23T12:59:58.890Z,8.30
2019-03-23T13:03:05.229Z,10.60
2019-03-23T13:06:11.498Z,7.77
2019-03-23T13:09:17.835Z,12.30
2019-03-23T13:12:24.174Z,9.67
2019-03-23T13:15:30.420Z,11.33
2019-03-23T13:18:36.738Z,12.70
2019-03-23T13:21:43.106Z,11.63
2019-03-23T13:24:49.338Z,11.07
2019-03-23T13:27:55.630Z,9.37
2019-03-23T13:31:01.970Z,11.00
2019-03-23T13:34:08.272Z,8.10
2019-03-23T13:37:14.584Z,11.50
2019-03-23T13:40:20.881Z,12.87
2019-03-23T13:43:27.182Z,12.10
2019-03-23T13:46:33.515Z,12.47
2019-03-23T13:49:39.809Z,12.27
2019-03-23T13:52:46.199Z,13.57
2019-03-23T13:55:52.569Z,14.27
2019-03-23T13:58:58.791Z,11.57
2019-03-23T14:02:05.099Z,12.47
2019-03-23T14:05:16.055Z,11.03
2019-03-23T14:08:19.613Z,11.47
2019-03-23T14:11:26.077Z,15.87
2019-03-23T14:14:32.336Z,13.20
2019-03-23T14:17:38.676Z,10.87
2019-03-23T14:20:44.966Z,12.60
2019-03-23T14:23:51.229Z,14.23
2019-03-23T14:26:57.554Z,13.13
2019-03-23T14:30:05.832Z,12.37
2019-03-23T14:33:12.099Z,14.53
2019-03-23T14:36:18.395Z,17.10
2019-03-23T14:39:24.675Z,14.07
2019-03-23T14:42:31.093Z,13.67
2019-03-23T14:45:37.613Z,11.90
2019-03-23T14:48:43.909Z,10.60
2019-03-23T14:51:50.250Z,9.93
2019-03-23T14:54:56.508Z,9.60
2019-03-23T14:58:02.879Z,10.70
2019-03-23T15:01:09.150Z,10.87
2019-03-23T15:04:15.421Z,9.03
2019-03-23T15:07:21.669Z,10.20
2019-03-23T15:10:27.991Z,11.70
2019-03-23T15:13:34.355Z,10.77
2019-03-23T15:16:40.724Z,8.50
2019-03-23T15:19:47.177Z,11.87
2019-03-23T15:22:53.453Z,8.67
2019-03-23T15:25:59.731Z,7.73
2019-03-23T15:29:06.105Z,7.83
2019-03-23T15:32:12.443Z,9.90
2019-03-23T15:35:18.803Z,8.50
2019-03-23T15:38:25.098Z,7.90
2019-03-23T15:41:31.430Z,10.23
2019-03-23T15:44:37.849Z,7.77
2019-03-23T15:47:44.180Z,11.70
2019-03-23T15:50:50.478Z,10.73
2019-03-23T15:53:56.726Z,10.17
2019-03-23T15:57:03.169Z,11.47
2019-03-23T16:00:11.113Z,9.73
2019-03-23T16:03:17.959Z,17.30
2019-03-23T16:06:24.279Z,10.87
2019-03-23T16:09:30.556Z,10.93
2019-03-23T16:12:37.916Z,12.17
2019-03-23T16:15:44.214Z,10.40
2019-03-23T16:18:50.538Z,13.13
2019-03-23T16:21:56.895Z,11.63
2019-03-23T16:25:03.326Z,14.27
2019-03-23T16:28:09.614Z,14.67
2019-03-23T16:31:16.082Z,11.73
2019-03-23T16:34:22.374Z,12.43
2019-03-23T16:37:28.704Z,18.57
2019-03-23T16:40:35.182Z,16.80
2019-03-23T16:43:41.626Z,12.80
2019-03-23T16:46:47.933Z,12.07
2019-03-23T16:49:54.281Z,14.67
2019-03-23T16:53:00.583Z,14.17
2019-03-23T16:56:06.980Z,15.07
2019-03-23T16:59:13.297Z,17.53
2019-03-23T17:02:19.563Z,14.27
2019-03-23T17:05:25.899Z,19.37
2019-03-23T17:08:32.216Z,23.53
2019-03-23T17:11:38.530Z,20.80
2019-03-23T17:14:44.801Z,23.10
2019-03-23T17:17:51.196Z,23.90
2019-03-23T17:20:57.487Z,20.07
2019-03-23T17:24:03.870Z,24.30
2019-03-23T17:27:10.261Z,15.20
2019-03-23T17:30:16.652Z,21.07
2019-03-23T17:33:23.014Z,17.60
2019-03-23T17:36:29.289Z,17.87
2019-03-23T17:39:35.626Z,24.23
2019-03-23T17:42:41.910Z,19.97
2019-03-23T17:45:48.345Z,20.93
2019-03-23T17:48:54.612Z,19.83
2019-03-23T17:52:01.913Z,20.53
2019-03-23T17:55:08.573Z,19.73
2019-03-23T17:58:14.928Z,23.43
2019-03-23T18:01:21.434Z,18.23
2019-03-23T18:04:27.988Z,18.57
2019-03-23T18:07:34.270Z,17.80
2019-03-23T18:10:40.530Z,45.83
2019-03-23T18:13:46.838Z,27.17
2019-03-23T18:16:53.195Z,18.80
2019-03-23T18:19:59.514Z,30.93
2019-03-23T18:23:05.996Z,30.77
2019-03-23T18:26:13.487Z,27.10
2019-03-23T18:29:20.748Z,20.07
2019-03-23T18:32:27.156Z,18.60
2019-03-23T18:35:33.576Z,19.33
2019-03-23T18:38:41.235Z,19.37
2019-03-23T18:41:47.561Z,16.10
2019-03-23T18:44:55.977Z,19.60
2019-03-23T18:48:02.533Z,18.67
2019-03-23T18:51:09.097Z,16.20
2019-03-23T18:54:15.545Z,22.03
2019-03-23T18:57:21.828Z,14.20
2019-03-23T19:00:42.415Z,19.10
2019-03-23T19:03:48.803Z,22.40
2019-03-23T19:06:55.407Z,20.17
2019-03-23T19:10:01.740Z,16.27
2019-03-23T19:13:10.103Z,16.67
2019-03-23T19:16:16.373Z,17.37
2019-03-23T19:19:22.944Z,17.93
2019-03-23T19:22:29.357Z,19.00
2019-03-23T19:25:35.643Z,16.43
2019-03-23T19:28:41.979Z,14.23
2019-03-23T19:31:48.269Z,17.37
2019-03-23T19:34:54.702Z,18.87
2019-03-23T19:38:01.094Z,20.10
2019-03-23T19:41:07.353Z,19.57
2019-03-23T19:44:13.712Z,20.17
2019-03-23T19:47:19.989Z,21.63
2019-03-23T19:50:26.397Z,20.70
2019-03-23T19:53:32.715Z,17.60
2019-03-23T19:56:39.023Z,20.83
2019-03-23T19:59:45.324Z,23.60
2019-03-23T20:02:51.606Z,22.30
2019-03-23T20:05:57.884Z,19.07
2019-03-23T20:09:06.175Z,17.87
2019-03-23T20:12:12.676Z,19.03
2019-03-23T20:15:19.157Z,18.03
2019-03-23T20:18:25.403Z,14.43
2019-03-23T20:21:32.720Z,13.30
2019-03-23T20:24:38.993Z,18.80
2019-03-23T20:27:45.904Z,16.23
2019-03-23T20:30:52.283Z,17.53
2019-03-23T20:33:58.725Z,21.40
2019-03-23T20:37:08.224Z,14.10
2019-03-23T20:40:14.759Z,14.00
2019-03-23T20:43:21.028Z,17.33
2019-03-23T20:46:27.638Z,12.90
2019-03-23T20:49:34.089Z,14.37
2019-03-23T20:52:40.759Z,10.80
2019-03-23T20:55:47.027Z,20.47
2019-03-23T20:58:53.472Z,15.90
2019-03-23T21:02:00.024Z,12.50
2019-03-23T21:05:06.606Z,15.87
2019-03-23T21:08:13.112Z,15.83
2019-03-23T21:11:19.449Z,15.97
2019-03-23T21:14:25.793Z,14.47
2019-03-23T21:17:32.033Z,13.57
2019-03-23T21:20:38.625Z,11.97
2019-03-23T21:23:44.944Z,13.40
2019-03-23T21:26:51.357Z,11.30
2019-03-23T21:29:57.891Z,21.20
2019-03-23T21:33:04.303Z,14.57
2019-03-23T21:36:10.560Z,12.77
2019-03-23T21:39:16.883Z,15.43
2019-03-23T21:42:23.242Z,17.83
2019-03-23T21:45:29.677Z,20.97
2019-03-23T21:48:35.936Z,18.33
2019-03-23T21:51:42.312Z,19.37
2019-03-23T21:54:48.766Z,15.73
2019-03-23T21:57:55.156Z,13.50
2019-03-23T22:01:01.870Z,15.10
2019-03-23T22:04:08.135Z,15.13
2019-03-23T22:07:14.591Z,14.93
2019-03-23T22:10:20.925Z,13.40
2019-03-23T22:13:27.189Z,14.20
2019-03-23T22:16:33.584Z,13.27
2019-03-23T22:19:39.912Z,16.10
2019-03-23T22:22:46.286Z,14.00
2019-03-23T22:25:53.739Z,14.87
2019-03-23T22:29:00.035Z,14.60
2019-03-23T22:32:06.342Z,17.63
2019-03-23T22:35:12.832Z,13.37
2019-03-23T22:38:19.312Z,14.47
2019-03-23T22:41:25.589Z,14.60
2019-03-23T22:44:32.013Z,15.33
2019-03-23T22:47:38.475Z,16.70
2019-03-23T22:50:44.740Z,13.47
2019-03-23T22:53:51.063Z,17.73
2019-03-23T22:56:58.432Z,14.70
2019-03-23T23:00:05.782Z,12.73
2019-03-23T23:03:13.928Z,15.07
2019-03-23T23:06:20.438Z,14.33
2019-03-23T23:09:26.990Z,14.40
2019-03-23T23:12:33.257Z,10.80
2019-03-23T23:15:39.644Z,11.10
2019-03-23T23:18:46.080Z,11.23
2019-03-23T23:21:52.426Z,15.47
2019-03-23T23:24:58.706Z,11.77
2019-03-23T23:28:05.201Z,13.50
2019-03-23T23:31:12.554Z,13.03
2019-03-23T23:34:18.859Z,15.33
2019-03-23T23:37:25.235Z,13.53
2019-03-23T23:40:31.500Z,11.90
2019-03-23T23:43:37.846Z,13.40
2019-03-23T23:46:44.175Z,16.07
2019-03-23T23:49:50.574Z,14.37
2019-03-23T23:52:56.959Z,16.07
2019-03-23T23:56:03.309Z,14.37
2019-03-23T23:59:09.658Z,11.97
